Time;durP1;ratioP1;P1;durP2;ratioP2;P2;SDS_P1;SDS_P2;PMS_P1;PMS_P2;Temp;Humidity;BMP_temperature;BMP_pressure;BME280_temperature;BME280_humidity;BME280_pressure;Samples;Min_cycle;Max_cycle;Signal;HPM_P1;HPM_P2
2023/06/15 00:00:41;;;;;;;;;;;;;;;;;;5043690;28;42997;-79
2023/06/15 00:03:07;;;;;;;;;;;;;;;;;;5046491;28;42784;-79
2023/06/15 00:05:33;;;;;;;;;;;;;;;;;;5047575;28;43649;-79
2023/06/15 00:07:59;;;;;;;;;;;;;;;;;;5047659;28;42967;-79
2023/06/15 00:10:24;;;;;;;;;;;;;;;;;;5048146;28;42816;-78
2023/06/15 00:12:50;;;;;;;;;;;;;;;;;;5047714;28;42764;-78
2023/06/15 00:15:16;;;;;;;;;;;24.90;58.20;;;;;;5047569;28;42783;-79
2023/06/15 00:17:42;;;;;;;;;;;24.90;58.40;;;;;;5047838;28;42916;-78
2023/06/15 00:20:13;;;;;;;;;;;24.90;58.60;;;;;;5047871;28;43033;-79
2023/06/15 00:22:41;;;;;;;;;;;24.90;58.70;;;;;;5047752;28;42856;-78
2023/06/15 00:25:07;;;;;;;;;;;;;;;;;;5028607;28;43560;-78
2023/06/15 00:27:33;;;;;;;;;;;;;;;;;;5047243;28;43066;-79
2023/06/15 00:29:58;;;;;;;;;;;;;;;;;;5029275;28;43875;-79
2023/06/15 00:32:24;;;;;;;;;;;;;;;;;;5047806;28;42931;-78
2023/06/15 00:34:50;;;;;;;;;;;;;;;;;;5047269;28;42872;-79
2023/06/15 00:37:16;;;;;;;;;;;;;;;;;;5047436;28;42962;-78
2023/06/15 00:39:42;;;;;;;;;;;;;;;;;;5047538;28;43014;-78
2023/06/15 00:42:08;;;;;;;;;;;24.70;59.00;;;;;;5047612;28;42951;-78
2023/06/15 00:44:33;;;;;;;;;;;24.70;59.00;;;;;;5046516;28;43363;-79
2023/06/15 00:46:59;;;;;;;;;;;;;;;;;;5046821;28;43093;-78
2023/06/15 00:49:25;;;;;;;;;;;;;;;;;;5046575;28;42995;-78
2023/06/15 00:51:51;;;;;;;;;;;24.70;58.90;;;;;;5047382;28;42896;-79
2023/06/15 00:54:17;;;;;;;;;;;;;;;;;;5047094;28;43227;-78
2023/06/15 00:56:43;;;;;;;;;;;;;;;;;;5047614;28;42980;-78
2023/06/15 00:59:09;;;;;;;;;;;;;;;;;;5046627;28;43445;-79
2023/06/15 01:01:35;;;;;;;;;;;;;;;;;;5046745;28;42892;-80
2023/06/15 01:04:01;;;;;;;;;;;;;;;;;;5046230;28;42954;-78
2023/06/15 01:06:31;;;;;;;;;;;24.70;58.90;;;;;;5046857;28;43005;-79
2023/06/15 01:08:57;;;;;;;;;;;;;;;;;;5047443;28;43497;-78
2023/06/15 01:11:23;;;;;;;;;;;24.70;59.10;;;;;;5047566;28;42825;-78
2023/06/15 01:13:49;;;;;;;;;;;;;;;;;;5028261;28;44128;-79
2023/06/15 01:16:15;;;;;;;;;;;;;;;;;;5046383;28;42891;-79
2023/06/15 01:18:47;;;;;;;;;;;;;;;;;;5047360;28;42871;-79
2023/06/15 01:21:16;;;;;;;;;;;;;;;;;;5047309;28;42918;-78
2023/06/15 01:23:49;;;;;;;;;;;24.70;59.00;;;;;;5046885;28;42890;-79
2023/06/15 01:26:16;;;;;;;;;;;24.70;58.90;;;;;;5047286;28;43301;-78
2023/06/15 01:28:45;;;;;;;;;;;24.70;58.70;;;;;;5046965;28;43496;-78
2023/06/15 01:31:11;;;;;;;;;;;;;;;;;;5046862;28;42857;-78
2023/06/15 01:33:49;;;;;;;;;;;24.70;58.60;;;;;;5046488;28;42893;-78
2023/06/15 01:36:15;;;;;;;;;;;24.70;58.40;;;;;;5045523;28;42920;-78
2023/06/15 01:38:41;;;;;;;;;;;;;;;;;;5046344;28;43267;-78
2023/06/15 01:41:07;;;;;;;;;;;;;;;;;;5046338;28;43004;-79
2023/06/15 01:43:33;;;;;;;;;;;;;;;;;;5046589;28;43051;-78
2023/06/15 01:45:59;;;;;;;;;;;;;;;;;;5044445;28;42981;-79
2023/06/15 01:48:25;;;;;;;;;;;;;;;;;;5047171;28;43787;-78
2023/06/15 01:50:51;;;;;;;;;;;24.60;58.60;;;;;;5046958;28;42868;-79
2023/06/15 01:53:17;;;;;;;;;;;24.60;58.60;;;;;;5046472;28;43532;-79
2023/06/15 01:55:43;;;;;;;;;;;;;;;;;;5046586;28;42936;-78
2023/06/15 01:58:10;;;;;;;;;;;24.60;58.60;;;;;;5046226;28;43379;-79
2023/06/15 02:00:36;;;;;;;;;;;24.60;58.50;;;;;;5043709;28;43032;-78
2023/06/15 02:03:01;;;;;;;;;;;24.60;58.60;;;;;;5045754;28;43093;-79
2023/06/15 02:05:28;;;;;;;;;;;24.60;58.60;;;;;;5046394;28;42993;-78
2023/06/15 02:07:53;;;;;;;;;;;24.60;58.70;;;;;;5046233;28;42901;-79
2023/06/15 02:10:19;;;;;;;;;;;24.60;58.80;;;;;;5046314;28;43107;-78
2023/06/15 02:12:45;;;;;;;;;;;;;;;;;;5045860;28;42968;-78
2023/06/15 02:15:11;;;;;;;;;;;;;;;;;;5046656;28;42886;-80
2023/06/15 02:17:38;;;;;;;;;;;;;;;;;;5046474;28;42768;-79
2023/06/15 02:20:11;;;;;;;;;;;24.60;59.00;;;;;;5046559;28;42928;-79
2023/06/15 02:22:37;;;;;;;;;;;24.50;59.00;;;;;;5027804;28;45413;-78
2023/06/15 02:25:03;;;;;;;;;;;24.60;59.00;;;;;;5044694;28;43054;-79
2023/06/15 02:27:29;;;;;;;;;;;;;;;;;;5045875;28;43343;-78
2023/06/15 02:29:55;;;;;;;;;;;;;;;;;;5045831;28;42905;-78
2023/06/15 02:32:21;;;;;;;;;;;;;;;;;;5027081;28;44555;-80
2023/06/15 02:34:47;;;;;;;;;;;;;;;;;;5026781;28;42900;-78
2023/06/15 02:37:13;;;;;;;;;;;;;;;;;;5045411;28;42923;-79
2023/06/15 02:39:39;;;;;;;;;;;;;;;;;;5045109;28;42955;-78
2023/06/15 02:42:05;;;;;;;;;;;;;;;;;;5045800;28;42943;-78
2023/06/15 02:44:31;;;;;;;;;;;;;;;;;;5045420;28;43099;-79
2023/06/15 02:46:56;;;;;;;;;;;24.60;59.10;;;;;;5045088;28;42909;-78
2023/06/15 02:49:23;;;;;;;;;;;24.60;59.00;;;;;;5044820;28;42909;-79
2023/06/15 02:51:48;;;;;;;;;;;;;;;;;;5045137;28;44756;-79
2023/06/15 02:54:14;;;;;;;;;;;24.50;58.30;;;;;;5046065;28;42773;-79
2023/06/15 02:56:41;;;;;;;;;;;24.50;58.10;;;;;;5045321;28;44251;-79
2023/06/15 02:59:08;;;;;;;;;;;;;;;;;;5044889;28;42899;-79
2023/06/15 03:01:40;;;;;;;;;;;24.40;57.80;;;;;;5045161;28;43642;-78
2023/06/15 03:04:09;;;;;;;;;;;24.40;57.70;;;;;;5045720;28;42968;-78
2023/06/15 03:06:36;;;;;;;;;;;24.40;57.60;;;;;;5045788;28;42928;-79
2023/06/15 03:09:02;;;;;;;;;;;;;;;;;;5045295;28;43500;-79
2023/06/15 03:11:28;;;;;;;;;;;24.40;57.40;;;;;;5044251;28;42998;-79
2023/06/15 03:13:53;;;;;;;;;;;24.40;57.30;;;;;;5044912;28;42977;-79
2023/06/15 03:16:20;;;;;;;;;;;;;;;;;;5044459;28;43111;-78
2023/06/15 03:18:47;;;;;;;;;;;;;;;;;;5035937;28;42814;-78
2023/06/15 03:21:14;;;;;;;;;;;;;;;;;;5043504;28;43468;-79
2023/06/15 03:23:41;;;;;;;;;;;24.40;57.40;;;;;;5044054;28;42887;-78
2023/06/15 03:26:07;;;;;;;;;;;;;;;;;;5042469;28;43668;-79
2023/06/15 03:28:37;;;;;;;;;;;;;;;;;;5044240;28;42923;-78
2023/06/15 03:31:04;;;;;;;;;;;;;;;;;;5044159;28;42912;-78
2023/06/15 03:33:30;;;;;;;;;;;24.40;57.70;;;;;;5044283;28;43011;-78
2023/06/15 03:35:57;;;;;;;;;;;;;;;;;;5042599;28;43717;-79
2023/06/15 03:38:23;;;;;;;;;;;24.40;57.90;;;;;;5043558;28;42825;-78
2023/06/15 03:40:49;;;;;;;;;;;;;;;;;;5042718;28;42995;-78
2023/06/15 03:43:15;;;;;;;;;;;24.40;57.90;;;;;;5044881;28;42933;-75
2023/06/15 03:45:41;;;;;;;;;;;;;;;;;;5044167;28;43484;-78
2023/06/15 03:48:06;;;;;;;;;;;;;;;;;;5044817;28;43093;-78
2023/06/15 03:50:32;;;;;;;;;;;;;;;;;;5043005;28;42972;-79
2023/06/15 03:52:58;;;;;;;;;;;24.40;57.60;;;;;;5043431;28;42996;-79
2023/06/15 03:55:25;;;;;;;;;;;24.40;57.40;;;;;;5050965;28;43651;-78
2023/06/15 03:57:50;;;;;;;;;;;;;;;;;;5062645;28;43023;-79
2023/06/15 04:00:16;;;;;;;;;;;24.40;57.10;;;;;;5037350;28;42904;-78
2023/06/15 04:02:42;;;;;;;;;;;24.30;57.10;;;;;;5043513;28;43017;-78
2023/06/15 04:05:07;;;;;;;;;;;24.30;57.20;;;;;;5042794;28;43513;-78
2023/06/15 04:07:34;;;;;;;;;;;;;;;;;;5022221;28;42921;-78
2023/06/15 04:10:00;;;;;;;;;;;24.30;57.30;;;;;;5042339;28;43924;-79
2023/06/15 04:12:26;;;;;;;;;;;;;;;;;;5041000;28;43041;-78
2023/06/15 04:14:51;;;;;;;;;;;;;;;;;;5042403;28;43569;-78
2023/06/15 04:17:18;;;;;;;;;;;24.40;57.20;;;;;;5043917;28;42940;-77
2023/06/15 04:19:44;;;;;;;;;;;24.40;57.00;;;;;;5042185;28;43080;-77
2023/06/15 04:22:10;;;;;;;;;;;24.40;56.80;;;;;;5042155;28;42940;-78
2023/06/15 04:24:36;;;;;;;;;;;24.40;56.70;;;;;;5024407;28;44086;-76
2023/06/15 04:27:01;;;;;;;;;;;24.40;56.60;;;;;;5042760;28;42956;-78
2023/06/15 04:29:29;;;;;;;;;;;24.40;56.50;;;;;;5043051;28;43807;-75
2023/06/15 04:31:57;;;;;;;;;;;24.40;56.60;;;;;;5021544;28;43085;-77
2023/06/15 04:34:24;;;;;;;;;;;;;;;;;;5038390;28;43882;-81
2023/06/15 04:36:49;;;;;;;;;;;24.50;56.20;;;;;;5038574;28;43666;-75
2023/06/15 04:39:15;;;;;;;;;;;;;;;;;;5040511;28;43288;-79
2023/06/15 04:41:42;;;;;;;;;;;24.60;56.30;;;;;;5041214;28;43042;-75
2023/06/15 04:44:08;;;;;;;;;;;;;;;;;;5040299;28;43037;-75
2023/06/15 04:46:38;;;;;;;;;;;;;;;;;;5040999;28;43033;-76
2023/06/15 04:49:03;;;;;;;;;;;24.50;56.30;;;;;;5041346;28;43333;-76
2023/06/15 04:51:29;;;;;;;;;;;24.50;56.30;;;;;;5045415;28;43070;-77
2023/06/15 04:53:56;;;;;;;;;;;24.50;56.40;;;;;;5043677;28;43433;-79
2023/06/15 04:56:22;;;;;;;;;;;24.50;56.50;;;;;;5042821;28;42961;-79
2023/06/15 04:58:48;;;;;;;;;;;;;;;;;;5045491;28;43989;-79
2023/06/15 05:01:14;;;;;;;;;;;24.40;56.30;;;;;;5039782;28;43018;-78
2023/06/15 05:03:40;;;;;;;;;;;24.40;56.30;;;;;;5045792;28;42857;-78
2023/06/15 05:06:05;;;;;;;;;;;24.30;56.30;;;;;;5048808;28;43081;-78
2023/06/15 05:08:33;;;;;;;;;;;24.30;56.30;;;;;;5045941;28;43262;-81
2023/06/15 05:10:58;;;;;;;;;;;24.30;56.30;;;;;;5026859;28;43166;-78
2023/06/15 05:13:24;;;;;;;;;;;24.20;57.00;;;;;;5044168;28;43460;-77
2023/06/15 05:15:50;;;;;;;;;;;24.20;57.00;;;;;;5043662;28;42990;-77
2023/06/15 05:18:15;;;;;;;;;;;24.20;57.30;;;;;;5027237;28;45893;-77
2023/06/15 05:20:41;;;;;;;;;;;24.10;57.20;;;;;;5045451;28;42929;-77
2023/06/15 05:23:07;;;;;;;;;;;24.10;57.30;;;;;;5045701;28;42984;-78
2023/06/15 05:25:33;;;;;;;;;;;24.10;57.50;;;;;;5045503;28;43090;-77
2023/06/15 05:27:58;;;;;;;;;;;24.20;57.50;;;;;;5045169;28;43630;-79
2023/06/15 05:30:26;;;;;;;;;;;;;;;;;;5046192;28;42994;-78
2023/06/15 05:32:52;;;;;;;;;;;24.10;57.40;;;;;;5043613;28;43428;-80
2023/06/15 05:35:18;;;;;;;;;;;24.10;57.30;;;;;;5046056;28;43002;-79
2023/06/15 05:37:43;;;;;;;;;;;24.10;57.20;;;;;;5045607;28;43094;-77
2023/06/15 05:40:09;;;;;;;;;;;24.10;57.00;;;;;;5046190;28;43022;-78
2023/06/15 05:42:34;;;;;;;;;;;24.10;57.00;;;;;;5045540;28;43173;-80
2023/06/15 05:45:00;;;;;;;;;;;24.20;57.20;;;;;;5046963;28;43043;-77
2023/06/15 05:47:25;;;;;;;;;;;24.20;57.50;;;;;;5046337;28;43717;-81
2023/06/15 05:49:51;;;;;;;;;;;24.20;57.60;;;;;;5046185;28;42978;-78
2023/06/15 05:52:17;;;;;;;;;;;24.20;57.70;;;;;;5021837;28;45624;-79
2023/06/15 05:54:43;;;;;;;;;;;24.20;57.70;;;;;;5046484;28;43273;-79
2023/06/15 05:57:10;;;;;;;;;;;24.20;57.60;;;;;;5046191;28;42995;-79
2023/06/15 05:59:36;;;;;;;;;;;24.20;58.00;;;;;;5044708;28;42994;-80
2023/06/15 06:02:01;;;;;;;;;;;24.20;57.40;;;;;;5043437;28;43189;-82
2023/06/15 06:04:27;;;;;;;;;;;24.20;57.30;;;;;;5046535;28;43011;-79
2023/06/15 06:06:52;;;;;;;;;;;24.20;57.10;;;;;;5065401;28;44194;-78
2023/06/15 06:09:18;;;;;;;;;;;24.20;57.10;;;;;;5066231;28;43177;-78
2023/06/15 06:11:47;;;;;;;;;;;24.20;57.10;;;;;;5045745;28;42857;-77
2023/06/15 06:14:13;;;;;;;;;;;24.20;57.60;;;;;;5043541;28;42943;-78
2023/06/15 06:16:38;;;;;;;;;;;24.20;57.30;;;;;;5044924;28;43325;-78
2023/06/15 06:19:04;;;;;;;;;;;24.20;58.00;;;;;;5045583;28;42942;-77
2023/06/15 06:21:31;;;;;;;;;;;24.20;57.60;;;;;;5042737;28;43633;-79
2023/06/15 06:23:56;;;;;;;;;;;24.20;57.70;;;;;;5027077;28;42964;-77
2023/06/15 06:26:22;;;;;;;;;;;24.30;58.20;;;;;;5044903;28;43633;-79
2023/06/15 06:28:48;;;;;;;;;;;24.20;57.60;;;;;;5041304;28;43574;-77
2023/06/15 06:31:14;;;;;;;;;;;24.20;57.60;;;;;;5045182;28;43398;-78
2023/06/15 06:33:40;;;;;;;;;;;24.30;57.70;;;;;;5042464;28;42882;-77
2023/06/15 06:36:08;;;;;;;;;;;24.30;57.70;;;;;;5026324;28;44627;-78
2023/06/15 06:38:34;;;;;;;;;;;24.30;58.30;;;;;;5045570;28;42990;-80
2023/06/15 06:40:59;;;;;;;;;;;24.30;57.60;;;;;;5041561;28;43648;-80
2023/06/15 06:43:25;;;;;;;;;;;24.30;57.50;;;;;;5041450;28;43015;-78
2023/06/15 06:45:51;;;;;;;;;;;24.30;57.40;;;;;;5021932;28;45411;-77
2023/06/15 06:48:17;;;;;;;;;;;24.40;57.20;;;;;;5044826;28;42940;-81
2023/06/15 06:50:43;;;;;;;;;;;24.30;57.10;;;;;;5059133;28;43057;-77
2023/06/15 06:53:08;;;;;;;;;;;24.40;57.10;;;;;;5046429;28;43125;-78
2023/06/15 06:55:34;;;;;;;;;;;24.40;57.00;;;;;;5063635;28;43331;-81
2023/06/15 06:58:00;;;;;;;;;;;24.40;57.00;;;;;;5043207;28;42955;-76
2023/06/15 07:00:27;;;;;;;;;;;24.40;57.00;;;;;;5045705;28;42984;-77
2023/06/15 07:02:53;;;;;;;;;;;24.40;57.10;;;;;;5048277;28;43186;-76
2023/06/15 07:05:19;;;;;;;;;;;24.40;57.50;;;;;;5044863;28;43517;-76
2023/06/15 07:07:44;;;;;;;;;;;24.40;56.90;;;;;;5045699;28;42974;-76
2023/06/15 07:10:10;;;;;;;;;;;24.40;57.50;;;;;;5044930;28;43379;-76
2023/06/15 07:12:36;;;;;;;;;;;24.50;57.00;;;;;;5044916;28;42951;-76
2023/06/15 07:15:01;;;;;;;;;;;24.50;57.40;;;;;;5044393;28;43451;-79
2023/06/15 07:17:27;;;;;;;;;;;24.50;57.30;;;;;;5045772;28;43050;-78
2023/06/15 07:19:52;;;;;;;;;;;24.50;57.00;;;;;;5045406;28;42888;-77
2023/06/15 07:22:18;;;;;;;;;;;24.50;57.00;;;;;;5045088;28;42869;-76
2023/06/15 07:24:43;;;;;;;;;;;24.50;57.10;;;;;;5045386;28;43112;-76
2023/06/15 07:27:09;;;;;;;;;;;24.40;56.30;;;;;;5045265;28;42799;-79
2023/06/15 07:29:34;;;;;;;;;;;24.50;56.90;;;;;;5045075;28;43023;-76
2023/06/15 07:32:00;;;;;;;;;;;24.40;56.30;;;;;;5044931;28;42958;-79
2023/06/15 07:34:26;;;;;;;;;;;24.50;56.70;;;;;;5045097;28;42775;-78
2023/06/15 07:36:52;;;;;;;;;;;24.50;56.60;;;;;;5026772;28;42880;-79
2023/06/15 07:39:17;;;;;;;;;;;24.50;56.30;;;;;;5045113;28;42876;-77
2023/06/15 07:41:43;;;;;;;;;;;24.50;56.90;;;;;;5045248;28;42888;-78
2023/06/15 07:44:12;;;;;;;;;;;24.50;56.80;;;;;;5045013;28;42779;-76
2023/06/15 07:46:38;;;;;;;;;;;24.40;56.20;;;;;;5045257;28;42959;-76
2023/06/15 07:49:04;;;;;;;;;;;24.50;56.80;;;;;;5044819;28;43646;-77
2023/06/15 07:51:29;;;;;;;;;;;24.50;56.60;;;;;;5044779;28;42952;-76
2023/06/15 07:53:55;;;;;;;;;;;24.50;56.10;;;;;;5045007;28;43050;-77
2023/06/15 07:56:20;;;;;;;;;;;24.50;56.00;;;;;;5042455;28;43152;-77
2023/06/15 07:58:46;;;;;;;;;;;24.40;55.40;;;;;;5044774;28;42928;-78
2023/06/15 08:01:11;;;;;;;;;;;24.40;55.40;;;;;;5045485;28;42932;-75
2023/06/15 08:03:37;;;;;;;;;;;24.50;56.10;;;;;;5045058;28;43859;-78
2023/06/15 08:06:02;;;;;;;;;;;24.40;55.90;;;;;;5044356;28;42957;-77
2023/06/15 08:08:28;;;;;;;;;;;24.40;55.40;;;;;;5044448;28;42928;-76
2023/06/15 08:10:53;;;;;;;;;;;24.40;55.40;;;;;;5042927;28;43038;-76
2023/06/15 08:13:20;;;;;;;;;;;24.50;56.10;;;;;;5044384;28;43500;-76
2023/06/15 08:15:46;;;;;;;;;;;24.40;55.40;;;;;;5044488;28;42997;-76
2023/06/15 08:18:11;;;;;;;;;;;24.50;55.90;;;;;;5044015;28;43558;-76
2023/06/15 08:20:37;;;;;;;;;;;24.40;55.40;;;;;;5044415;28;42954;-77
2023/06/15 08:23:02;;;;;;;;;;;24.50;56.00;;;;;;5045807;28;43692;-78
2023/06/15 08:25:28;;;;;;;;;;;24.50;55.90;;;;;;5047499;28;42889;-79
2023/06/15 08:27:54;;;;;;;;;;;24.50;55.30;;;;;;5048217;28;43466;-80
2023/06/15 08:30:20;;;;;;;;;;;24.50;55.80;;;;;;5045376;28;42931;-78
2023/06/15 08:32:46;;;;;;;;;;;24.50;55.70;;;;;;5048093;28;42896;-77
2023/06/15 08:35:11;;;;;;;;;;;24.50;55.60;;;;;;5044027;28;43561;-78
2023/06/15 08:37:37;;;;;;;;;;;24.50;55.60;;;;;;5047736;28;43420;-75
2023/06/15 08:40:07;;;;;;;;;;;24.50;55.50;;;;;;5029485;28;42974;-78
2023/06/15 08:42:33;;;;;;;;;;;24.50;55.30;;;;;;5029748;28;44621;-79
2023/06/15 08:45:03;;;;;;;;;;;24.50;55.20;;;;;;5047434;28;42921;-80
2023/06/15 08:47:30;;;;;;;;;;;24.50;55.10;;;;;;5046735;28;43531;-75
2023/06/15 08:49:55;;;;;;;;;;;24.50;55.10;;;;;;5047881;28;42936;-77
2023/06/15 08:52:23;;;;;;;;;;;24.50;55.10;;;;;;5047509;28;43762;-77
2023/06/15 08:54:51;;;;;;;;;;;24.50;55.10;;;;;;5047550;28;42782;-77
2023/06/15 08:57:17;;;;;;;;;;;24.50;55.10;;;;;;5047546;28;43742;-77
2023/06/15 08:59:42;;;;;;;;;;;24.50;55.00;;;;;;5046383;28;42849;-77
2023/06/15 09:02:10;;;;;;;;;;;24.50;55.10;;;;;;5029302;28;44724;-78
2023/06/15 09:04:36;;;;;;;;;;;24.50;55.00;;;;;;5047256;28;42947;-78
2023/06/15 09:07:02;;;;;;;;;;;24.50;54.40;;;;;;5046848;28;43349;-80
2023/06/15 09:09:29;;;;;;;;;;;24.50;54.80;;;;;;5047388;28;42922;-79
2023/06/15 09:11:54;;;;;;;;;;;24.50;54.20;;;;;;5047315;28;43531;-77
2023/06/15 09:14:20;;;;;;;;;;;24.50;54.80;;;;;;5048030;28;42937;-76
2023/06/15 09:16:48;;;;;;;;;;;24.50;54.60;;;;;;5047222;28;42975;-77
2023/06/15 09:19:16;;;;;;;;;;;24.50;54.00;;;;;;5047435;28;43189;-80
2023/06/15 09:21:53;;;;;;;;;;;24.50;54.40;;;;;;5047371;28;42900;-77
2023/06/15 09:24:22;;;;;;;;;;;24.60;54.40;;;;;;5047105;28;42958;-77
2023/06/15 09:26:47;;;;;;;;;;;24.50;54.30;;;;;;5046879;28;43708;-77
2023/06/15 09:29:13;;;;;;;;;;;24.50;54.30;;;;;;5046201;28;42886;-76
2023/06/15 09:31:40;;;;;;;;;;;24.60;54.20;;;;;;5045864;28;43005;-80
2023/06/15 09:34:10;;;;;;;;;;;24.60;54.10;;;;;;5045344;28;42874;-77
2023/06/15 09:36:47;;;;;;;;;;;24.60;53.50;;;;;;5046362;28;42994;-77
2023/06/15 09:39:14;;;;;;;;;;;24.50;53.50;;;;;;5046541;28;42987;-77
2023/06/15 09:41:53;;;;;;;;;;;24.60;53.90;;;;;;5046552;28;43487;-77
2023/06/15 09:44:19;;;;;;;;;;;24.60;53.30;;;;;;5046756;28;42976;-78
2023/06/15 09:46:47;;;;;;;;;;;24.60;53.80;;;;;;5047385;28;43511;-77
2023/06/15 09:49:20;;;;;;;;;;;24.60;53.70;;;;;;5047428;28;43000;-76
2023/06/15 09:51:48;;;;;;;;;;;24.60;53.70;;;;;;5046477;28;43397;-76
2023/06/15 09:54:13;;;;;;;;;;;;;;;;;;5028193;28;43051;-78
2023/06/15 09:56:40;;;;;;;;;;;24.60;53.20;;;;;;5028638;28;44762;-77
2023/06/15 09:59:06;;;;;;;;;;;24.80;53.30;;;;;;5028289;28;43017;-77
2023/06/15 10:01:35;;;;;;;;;;;24.60;53.20;;;;;;5046057;28;43320;-77
2023/06/15 10:04:02;;;;;;;;;;;24.60;53.10;;;;;;5011537;28;42819;-77
2023/06/15 10:06:30;;;;;;;;;;;24.60;53.10;;;;;;5028280;28;44912;-77
2023/06/15 10:08:59;;;;;;;;;;;24.60;53.10;;;;;;5046173;28;43007;-76
2023/06/15 10:11:25;;;;;;;;;;;24.60;53.00;;;;;;5045643;28;43767;-78
2023/06/15 10:14:20;;;;;;;;;;;24.60;52.90;;;;;;5026594;28;43170;-76
2023/06/15 10:16:53;;;;;;;;;;;24.60;52.90;;;;;;5001148;28;44114;-76
2023/06/15 10:19:21;;;;;;;;;;;24.60;52.90;;;;;;5027933;28;42984;-77
2023/06/15 10:21:47;;;;;;;;;;;24.60;52.80;;;;;;5028941;28;44322;-77
2023/06/15 10:24:13;;;;;;;;;;;24.60;52.70;;;;;;5045850;28;42983;-76
2023/06/15 10:26:40;;;;;;;;;;;24.60;52.70;;;;;;5045313;28;42956;-76
2023/06/15 10:29:12;;;;;;;;;;;24.60;52.70;;;;;;5045809;28;43004;-77
2023/06/15 10:31:37;;;;;;;;;;;24.60;52.70;;;;;;5046017;28;43469;-78
2023/06/15 10:34:03;;;;;;;;;;;24.60;52.60;;;;;;5045872;28;42995;-77
2023/06/15 10:36:29;;;;;;;;;;;24.60;52.60;;;;;;5044709;28;43529;-77
2023/06/15 10:39:14;;;;;;;;;;;24.60;52.60;;;;;;5045067;28;42880;-76
2023/06/15 10:41:39;;;;;;;;;;;24.60;52.50;;;;;;5045967;28;42855;-78
2023/06/15 10:44:05;;;;;;;;;;;24.60;52.50;;;;;;5027601;28;42960;-76
2023/06/15 10:46:32;;;;;;;;;;;24.60;52.50;;;;;;5027221;28;44500;-77
2023/06/15 10:49:04;;;;;;;;;;;24.60;52.50;;;;;;5045709;28;42838;-76
2023/06/15 10:51:32;;;;;;;;;;;24.60;53.00;;;;;;5046179;28;43539;-77
2023/06/15 10:53:58;;;;;;;;;;;24.60;53.10;;;;;;5046181;28;42938;-77
2023/06/15 10:56:27;;;;;;;;;;;24.60;52.90;;;;;;5046011;28;43002;-77
2023/06/15 10:58:55;;;;;;;;;;;24.60;52.20;;;;;;5045286;28;43007;-76
2023/06/15 11:01:22;;;;;;;;;;;24.60;52.70;;;;;;5045219;28;43597;-76
2023/06/15 11:03:48;;;;;;;;;;;24.60;52.20;;;;;;5045476;28;42912;-77
2023/06/15 11:06:15;;;;;;;;;;;24.60;52.10;;;;;;5044345;28;43683;-77
2023/06/15 11:08:47;;;;;;;;;;;24.60;53.10;;;;;;5045520;28;42865;-77
2023/06/15 11:11:13;;;;;;;;;;;24.60;52.10;;;;;;5045272;28;42952;-78
2023/06/15 11:13:55;;;;;;;;;;;24.60;52.50;;;;;;5044818;28;42914;-76
2023/06/15 11:16:28;;;;;;;;;;;24.70;52.10;;;;;;5045217;28;43529;-77
2023/06/15 11:18:55;;;;;;;;;;;24.60;52.50;;;;;;5027183;28;42911;-77
2023/06/15 11:21:25;;;;;;;;;;;24.70;52.50;;;;;;5044969;28;42906;-77
2023/06/15 11:23:57;;;;;;;;;;;24.60;52.30;;;;;;5045537;28;42837;-76
2023/06/15 11:26:28;;;;;;;;;;;24.60;52.10;;;;;;5043935;28;64419;-79
2023/06/15 11:28:57;;;;;;;;;;;24.60;52.10;;;;;;5027150;28;43002;-76
2023/06/15 11:31:23;;;;;;;;;;;24.60;52.00;;;;;;5045189;28;42905;-76
2023/06/15 11:33:49;;;;;;;;;;;24.60;51.50;;;;;;5045340;28;42923;-78
2023/06/15 11:36:15;;;;;;;;;;;24.60;52.00;;;;;;5044550;28;43701;-76
2023/06/15 11:38:40;;;;;;;;;;;24.70;51.40;;;;;;5045290;28;42913;-78
2023/06/15 11:41:07;;;;;;;;;;;24.70;51.90;;;;;;5044316;28;42839;-76
2023/06/15 11:43:49;;;;;;;;;;;24.70;51.40;;;;;;5044645;28;43059;-77
2023/06/15 11:46:20;;;;;;;;;;;24.70;51.80;;;;;;5044898;28;42822;-77
2023/06/15 11:48:46;;;;;;;;;;;24.60;51.30;;;;;;5045106;28;43132;-76
2023/06/15 11:51:13;;;;;;;;;;;24.70;51.30;;;;;;5027120;28;44388;-80
2023/06/15 11:53:42;;;;;;;;;;;24.70;51.70;;;;;;5026932;28;42965;-77
2023/06/15 11:56:08;;;;;;;;;;;24.70;51.10;;;;;;5026048;28;45334;-78
2023/06/15 11:58:35;;;;;;;;;;;24.70;51.00;;;;;;5043556;28;42930;-80
2023/06/15 12:01:01;;;;;;;;;;;24.60;51.00;;;;;;5044754;28;43952;-80
2023/06/15 12:03:27;;;;;;;;;;;24.70;51.40;;;;;;5044247;28;43080;-76
2023/06/15 12:05:57;;;;;;;;;;;24.70;50.90;;;;;;5044042;28;43291;-77
2023/06/15 12:08:23;;;;;;;;;;;24.70;50.90;;;;;;5044202;28;42976;-78
2023/06/15 12:10:50;;;;;;;;;;;24.70;50.90;;;;;;5025848;28;44098;-79
2023/06/15 12:13:15;;;;;;;;;;;24.70;50.60;;;;;;5044474;28;43107;-80
2023/06/15 12:15:45;;;;;;;;;;;24.70;50.60;;;;;;5044154;28;44414;-76
2023/06/15 12:18:11;;;;;;;;;;;24.70;50.40;;;;;;5044328;28;43169;-77
2023/06/15 12:20:39;;;;;;;;;;;24.70;50.40;;;;;;5044708;28;43751;-76
2023/06/15 12:23:05;;;;;;;;;;;24.70;50.40;;;;;;5044935;28;42905;-77
2023/06/15 12:25:40;;;;;;;;;;;24.70;50.60;;;;;;5044367;28;42912;-77
2023/06/15 12:28:16;;;;;;;;;;;24.70;50.60;;;;;;5026631;28;42921;-76
2023/06/15 12:30:42;;;;;;;;;;;24.70;51.10;;;;;;5044211;28;43410;-79
2023/06/15 12:33:26;;;;;;;;;;;24.70;51.20;;;;;;5044652;28;42967;-77
2023/06/15 12:35:52;;;;;;;;;;;24.70;51.10;;;;;;5044359;28;43710;-76
2023/06/15 12:38:19;;;;;;;;;;;24.70;50.70;;;;;;5044332;28;42952;-79
2023/06/15 12:40:45;;;;;;;;;;;24.70;51.10;;;;;;5044147;28;42987;-77
2023/06/15 12:43:10;;;;;;;;;;;24.70;51.30;;;;;;5043918;28;43120;-76
2023/06/15 12:45:36;;;;;;;;;;;24.70;50.80;;;;;;5044246;28;43472;-76
2023/06/15 12:48:02;;;;;;;;;;;24.70;50.70;;;;;;5044087;28;42996;-77
2023/06/15 12:50:28;;;;;;;;;;;24.70;51.00;;;;;;5044208;28;42803;-76
2023/06/15 12:52:57;;;;;;;;;;;24.70;51.00;;;;;;5044565;28;42895;-77
2023/06/15 12:55:22;;;;;;;;;;;24.70;51.00;;;;;;5043977;28;43698;-78
2023/06/15 12:57:48;;;;;;;;;;;24.70;50.90;;;;;;5044174;28;42952;-80
2023/06/15 13:00:14;;;;;;;;;;;24.70;50.90;;;;;;5044303;28;42928;-78
2023/06/15 13:02:40;;;;;;;;;;;24.70;50.80;;;;;;5042792;28;43092;-77
2023/06/15 13:05:06;;;;;;;;;;;24.70;50.80;;;;;;5043869;28;43010;-79
2023/06/15 13:07:32;;;;;;;;;;;24.70;50.70;;;;;;5043510;28;42857;-77
2023/06/15 13:09:58;;;;;;;;;;;24.70;50.70;;;;;;5046616;28;43391;-79
2023/06/15 13:12:25;;;;;;;;;;;24.70;50.60;;;;;;5047894;28;43135;-76
2023/06/15 13:14:51;;;;;;;;;;;24.70;50.10;;;;;;5047340;28;43011;-80
2023/06/15 13:17:17;;;;;;;;;;;24.70;50.40;;;;;;5047793;28;43019;-76
2023/06/15 13:19:42;;;;;;;;;;;24.70;50.30;;;;;;5047556;28;43653;-77
2023/06/15 13:22:08;;;;;;;;;;;24.70;50.00;;;;;;5047280;28;42906;-80
2023/06/15 13:24:36;;;;;;;;;;;24.70;49.90;;;;;;5046989;28;42942;-77
2023/06/15 13:27:07;;;;;;;;;;;24.70;50.60;;;;;;5047338;28;42879;-77
2023/06/15 13:29:33;;;;;;;;;;;24.70;50.60;;;;;;5047097;28;42813;-78
2023/06/15 13:32:01;;;;;;;;;;;24.80;50.50;;;;;;5046763;28;42838;-77
2023/06/15 13:34:27;;;;;;;;;;;24.70;50.90;;;;;;5046698;28;43407;-79
2023/06/15 13:36:52;;;;;;;;;;;24.70;50.40;;;;;;5047335;28;42967;-78
2023/06/15 13:39:18;;;;;;;;;;;24.80;50.50;;;;;;5046847;28;42956;-77
2023/06/15 13:41:44;;;;;;;;;;;24.70;50.90;;;;;;5047144;28;42826;-76
2023/06/15 13:44:10;;;;;;;;;;;24.80;50.40;;;;;;5046623;28;43657;-82
2023/06/15 13:46:37;;;;;;;;;;;24.70;50.20;;;;;;5046966;28;42920;-82
2023/06/15 13:49:06;;;;;;;;;;;24.80;50.70;;;;;;5046892;28;42889;-77
2023/06/15 13:51:32;;;;;;;;;;;24.80;50.50;;;;;;5047012;28;42936;-80
2023/06/15 13:53:57;;;;;;;;;;;24.80;50.60;;;;;;5028300;28;44594;-76
2023/06/15 13:56:24;;;;;;;;;;;24.80;50.80;;;;;;5046854;28;42956;-76
2023/06/15 13:58:50;;;;;;;;;;;24.80;51.10;;;;;;5046970;28;43497;-77
2023/06/15 14:01:15;;;;;;;;;;;24.80;51.30;;;;;;5046687;28;42819;-76
2023/06/15 14:03:41;;;;;;;;;;;24.80;51.70;;;;;;5046759;28;42888;-76
2023/06/15 14:06:06;;;;;;;;;;;24.70;51.40;;;;;;5046679;28;42968;-76
2023/06/15 14:08:32;;;;;;;;;;;24.80;51.70;;;;;;5046416;28;43007;-81
2023/06/15 14:10:58;;;;;;;;;;;24.80;52.50;;;;;;5046695;28;42881;-76
2023/06/15 14:13:24;;;;;;;;;;;24.80;52.60;;;;;;5045919;28;43636;-78
2023/06/15 14:15:49;;;;;;;;;;;24.80;52.70;;;;;;5046459;28;42887;-77
2023/06/15 14:18:17;;;;;;;;;;;24.80;52.90;;;;;;5046393;28;43261;-78
2023/06/15 14:20:43;;;;;;;;;;;24.80;52.90;;;;;;5045593;28;42960;-76
2023/06/15 14:23:08;;;;;;;;;;;24.80;53.20;;;;;;5046381;28;43455;-77
2023/06/15 14:25:34;;;;;;;;;;;24.80;53.00;;;;;;5045879;28;42765;-76
2023/06/15 14:27:59;;;;;;;;;;;24.80;53.10;;;;;;5027990;28;43256;-76
2023/06/15 14:30:25;;;;;;;;;;;24.80;53.20;;;;;;5046350;28;42975;-79
2023/06/15 14:32:50;;;;;;;;;;;24.90;53.40;;;;;;5046330;28;42781;-77
2023/06/15 14:35:16;;;;;;;;;;;24.80;53.40;;;;;;5027253;28;43105;-76
2023/06/15 14:37:42;;;;;;;;;;;24.90;53.50;;;;;;5045423;28;43656;-77